Time;durP1;ratioP1;P1;durP2;ratioP2;P2;SDS_P1;SDS_P2;PMS_P1;PMS_P2;Temp;Humidity;BMP_temperature;BMP_pressure;BME280_temperature;BME280_humidity;BME280_pressure;Samples;Min_cycle;Max_cycle;Signal;HPM_P1;HPM_P2
2021/12/19 00:01:26;;;;;;;39.28;13.52;;;;;;;0.77;92.01;99084.34;5011615;28;20041;-59
2021/12/19 00:04:02;;;;;;;32.90;12.57;;;;;;;0.63;91.74;99080.31;5016977;28;20095;-60
2021/12/19 00:09:14;;;;;;;39.50;12.93;;;;;;;0.41;92.06;99067.34;5018704;28;20513;-58
2021/12/19 00:11:41;;;;;;;36.95;12.32;;;;;;;0.36;93.06;99060.63;5026526;28;20112;-59
2021/12/19 00:14:07;;;;;;;54.50;14.98;;;;;;;0.56;93.66;99065.06;5022278;28;20045;-58
2021/12/19 00:16:34;;;;;;;50.38;13.13;;;;;;;0.60;92.94;99072.63;5037329;28;20048;-57
2021/12/19 00:19:01;;;;;;;48.35;12.85;;;;;;;0.52;92.43;99068.00;5016459;28;20052;-56
2021/12/19 00:21:28;;;;;;;35.70;12.98;;;;;;;0.61;93.05;99063.63;5021533;28;20044;-57
2021/12/19 00:23:55;;;;;;;39.90;13.55;;;;;;;0.60;92.41;99066.44;5018664;28;20049;-57
2021/12/19 00:26:23;;;;;;;38.58;12.25;;;;;;;0.50;92.29;99059.31;5023057;28;20672;-58
2021/12/19 00:28:50;;;;;;;39.20;12.55;;;;;;;0.64;92.46;99050.03;5007691;28;20042;-55
2021/12/19 00:31:17;;;;;;;33.78;11.48;;;;;;;0.77;92.24;99055.00;5018409;28;20089;-58
2021/12/19 00:33:44;;;;;;;32.28;11.00;;;;;;;0.70;91.64;99045.91;5018825;28;20046;-58
2021/12/19 00:36:11;;;;;;;27.42;9.65;;;;;;;0.74;91.86;99041.16;5026283;28;20079;-58
2021/12/19 00:38:39;;;;;;;29.23;10.45;;;;;;;0.72;91.01;99027.97;5022969;28;20038;-58
2021/12/19 00:41:06;;;;;;;26.83;9.95;;;;;;;0.77;92.17;99035.50;5009792;28;20033;-58
2021/12/19 00:43:43;;;;;;;32.75;10.32;;;;;;;0.64;91.13;99030.50;5019424;28;20097;-59
2021/12/19 00:46:13;;;;;;;30.00;11.10;;;;;;;0.73;91.31;99018.09;5006068;28;20046;-59
2021/12/19 00:48:44;;;;;;;27.88;9.75;;;;;;;0.66;91.12;99017.03;5035186;28;20041;-59
2021/12/19 00:51:14;;;;;;;25.40;10.02;;;;;;;0.76;90.93;99013.34;5016315;28;20046;-59
2021/12/19 00:53:42;;;;;;;27.63;10.82;;;;;;;0.75;91.70;99014.34;5019824;28;20057;-58
2021/12/19 00:56:09;;;;;;;29.08;9.85;;;;;;;0.59;91.43;99006.94;5009769;28;20046;-59
2021/12/19 00:58:36;;;;;;;32.45;9.75;;;;;;;0.34;92.09;99006.63;5025542;28;20146;-59
2021/12/19 01:01:05;;;;;;;31.95;10.98;;;;;;;0.38;93.70;99009.84;5023567;28;20045;-58
2021/12/19 01:03:33;;;;;;;37.45;11.15;;;;;;;0.45;92.74;99005.63;5025645;28;20042;-58
2021/12/19 01:06:00;;;;;;;33.60;10.68;;;;;;;0.41;92.41;99003.38;5014505;28;20040;-58
2021/12/19 01:08:26;;;;;;;23.73;8.73;;;;;;;0.70;91.22;99007.75;5019647;28;20041;-57
2021/12/19 01:10:53;;;;;;;31.58;9.07;;;;;;;0.44;91.55;99003.91;5030191;28;20050;-58
2021/12/19 01:13:20;;;;;;;29.30;8.85;;;;;;;0.34;91.75;99005.78;5021910;28;20054;-58
2021/12/19 01:15:47;;;;;;;24.27;8.88;;;;;;;0.41;91.76;99008.72;5026638;28;20058;-59
2021/12/19 01:18:14;;;;;;;24.42;9.93;;;;;;;0.40;92.04;98999.06;5022938;28;20054;-59
2021/12/19 01:20:42;;;;;;;26.80;9.95;;;;;;;0.52;92.91;99003.22;5010653;28;20042;-58
2021/12/19 01:23:10;;;;;;;32.88;10.40;;;;;;;0.43;91.58;99010.25;5022130;28;20046;-59
2021/12/19 01:25:37;;;;;;;31.08;9.80;;;;;;;0.38;91.46;99013.34;5018017;28;20050;-58
2021/12/19 01:28:04;;;;;;;21.30;8.57;;;;;;;0.38;91.28;99018.66;5026499;28;20049;-56
2021/12/19 01:30:32;;;;;;;28.58;9.25;;;;;;;0.31;91.75;99014.91;5015253;28;20046;-57
2021/12/19 01:32:58;;;;;;;26.23;10.38;;;;;;;0.19;92.11;99011.56;5023768;28;20566;-58
2021/12/19 01:35:25;;;;;;;31.58;11.18;;;;;;;0.11;92.70;99009.63;5028432;28;20038;-58
2021/12/19 01:37:52;;;;;;;30.92;10.15;;;;;;;0.06;92.89;99005.72;5021420;28;20532;-58
2021/12/19 01:40:21;;;;;;;28.88;10.00;;;;;;;0.04;92.56;99007.69;5010837;28;20042;-59
2021/12/19 01:42:49;;;;;;;23.38;9.93;;;;;;;0.11;92.24;99006.16;5027625;28;20098;-58
2021/12/19 01:45:42;;;;;;;26.50;9.05;;;;;;;0.07;92.58;99018.91;5025229;28;20683;-59
2021/12/19 01:48:11;;;;;;;24.48;8.70;;;;;;;0.17;92.43;99028.69;5021037;28;20053;-58
2021/12/19 01:50:40;;;;;;;32.22;9.63;;;;;;;0.06;91.81;99017.22;5025537;28;20041;-59
2021/12/19 01:53:11;;;;;;;21.25;8.48;;;;;;;0.18;92.30;99009.91;5044480;28;20045;-57
2021/12/19 01:55:39;;;;;;;22.85;8.55;;;;;;;0.21;91.45;99006.94;5014441;28;20540;-59
2021/12/19 01:58:06;;;;;;;21.20;8.48;;;;;;;0.21;91.57;99006.09;5028069;28;20042;-56
2021/12/19 02:00:39;;;;;;;24.58;9.35;;;;;;;0.23;91.04;99004.16;5029919;28;20037;-56
2021/12/19 02:03:08;;;;;;;23.60;9.15;;;;;;;0.24;90.72;99004.00;5027341;28;20502;-57
2021/12/19 02:05:36;;;;;;;24.88;10.07;;;;;;;0.14;91.21;99005.03;5021023;28;20045;-58
2021/12/19 02:08:04;;;;;;;24.52;9.18;;;;;;;-0.04;91.90;99011.91;5017614;28;20045;-60
2021/12/19 02:10:32;;;;;;;23.08;7.95;;;;;;;-0.03;92.63;99012.75;5024781;28;20054;-57
2021/12/19 02:13:00;;;;;;;29.38;9.50;;;;;;;-0.08;92.79;99015.03;5024240;28;20524;-57
2021/12/19 02:15:29;;;;;;;26.67;9.23;;;;;;;-0.08;93.01;99021.16;5013804;28;20456;-58
2021/12/19 02:17:59;;;;;;;22.45;9.23;;;;;;;-0.01;93.09;99019.63;5014727;28;20521;-58
2021/12/19 02:20:32;;;;;;;24.70;8.75;;;;;;;-0.09;93.19;99013.31;5018865;28;20119;-58
2021/12/19 02:22:59;;;;;;;21.42;7.47;;;;;;;-0.02;93.26;99011.78;5025568;28;20043;-58
2021/12/19 02:25:26;;;;;;;26.98;9.85;;;;;;;-0.08;93.53;98999.03;5023928;28;20086;-59
2021/12/19 02:27:55;;;;;;;27.40;8.18;;;;;;;-0.12;93.12;98992.31;5017536;28;20727;-58
2021/12/19 02:30:22;;;;;;;29.60;8.95;;;;;;;-0.16;93.06;98976.63;5022014;28;20451;-57
2021/12/19 02:32:48;;;;;;;32.60;8.88;;;;;;;-0.05;92.92;98980.94;5022964;28;20052;-57
2021/12/19 02:35:21;;;;;;;28.45;10.20;;;;;;;-0.02;92.99;98971.81;5024055;28;20048;-56
2021/12/19 02:48:09;;;;;;;30.73;9.68;;;;;;;-0.22;93.07;98971.84;5027117;28;20051;-59
2021/12/19 02:48:56;;;;;;;27.70;9.73;;;;;;;0.03;92.75;98977.56;5022668;28;20033;-59
2021/12/19 02:51:24;;;;;;;17.90;6.95;;;;;;;-0.06;92.31;98983.75;5015532;28;20041;-59
2021/12/19 02:53:51;;;;;;;24.48;8.63;;;;;;;-0.21;93.02;98967.38;5031865;28;20046;-58
2021/12/19 02:56:18;;;;;;;25.65;8.30;;;;;;;-0.13;93.45;98964.84;5009480;28;20052;-57
2021/12/19 02:58:46;;;;;;;26.27;8.35;;;;;;;-0.21;92.76;98964.72;5020643;28;20091;-59
2021/12/19 03:01:16;;;;;;;23.38;9.18;;;;;;;-0.23;93.17;98964.84;5008774;28;20052;-58
2021/12/19 03:03:42;;;;;;;19.48;7.28;;;;;;;-0.26;93.60;98967.78;5027738;28;20686;-58
2021/12/19 03:06:10;;;;;;;26.48;8.45;;;;;;;-0.09;93.77;98965.38;5022746;28;20070;-59
2021/12/19 03:08:42;;;;;;;22.92;8.18;;;;;;;-0.18;93.06;98965.25;5021100;28;20045;-58
2021/12/19 03:19:12;;;;;;;27.08;10.23;;;;;;;-0.21;93.58;98946.94;5018976;28;20042;-59
2021/12/19 03:21:39;;;;;;;24.48;9.27;;;;;;;-0.26;93.39;98949.16;5026330;28;20041;-59
2021/12/19 03:24:06;;;;;;;28.85;10.35;;;;;;;-0.11;93.61;98940.75;5008939;28;20034;-59
2021/12/19 03:26:33;;;;;;;25.23;7.38;;;;;;;-0.25;93.26;98936.69;5026005;28;20053;-58
2021/12/19 03:29:00;;;;;;;23.98;7.43;;;;;;;-0.31;93.04;98938.97;5022256;28;20044;-57
2021/12/19 03:31:26;;;;;;;21.13;7.32;;;;;;;-0.26;93.98;98943.84;5025267;28;20558;-57
2021/12/19 03:33:53;;;;;;;19.52;6.78;;;;;;;-0.27;92.90;98939.50;5028286;28;20037;-59
2021/12/19 03:36:20;;;;;;;21.70;8.50;;;;;;;-0.25;92.57;98942.03;5007051;28;20405;-59
2021/12/19 03:38:48;;;;;;;17.13;6.75;;;;;;;-0.13;92.34;98927.56;5016045;28;20045;-58
2021/12/19 03:41:23;;;;;;;14.27;5.65;;;;;;;0.03;90.81;98920.81;5028731;28;20050;-57
2021/12/19 03:43:50;;;;;;;12.48;4.63;;;;;;;-0.02;89.86;98930.06;5025994;28;20037;-58
2021/12/19 03:46:17;;;;;;;11.65;4.88;;;;;;;-0.02;90.81;98929.22;5020643;28;20046;-59
2021/12/19 03:48:44;;;;;;;13.38;5.80;;;;;;;-0.04;90.92;98934.69;5014420;28;20045;-57
2021/12/19 03:51:10;;;;;;;14.32;6.20;;;;;;;0.07;91.33;98928.34;5023220;28;20054;-58
2021/12/19 03:53:37;;;;;;;15.82;6.28;;;;;;;-0.11;92.39;98922.09;5030020;28;20051;-59
2021/12/19 03:56:04;;;;;;;20.55;7.22;;;;;;;-0.11;91.61;98924.75;5022759;28;20456;-59
2021/12/19 03:58:30;;;;;;;16.40;6.50;;;;;;;-0.05;91.11;98925.03;5007734;28;20107;-59
2021/12/19 04:01:00;;;;;;;13.88;6.22;;;;;;;0.01;91.03;98930.75;5006437;28;20657;-59
2021/12/19 04:03:28;;;;;;;18.92;6.80;;;;;;;0.04;90.92;98919.81;5035265;28;20033;-59
2021/12/19 04:05:55;;;;;;;17.65;6.32;;;;;;;0.03;90.57;98924.28;5013702;28;20057;-58
2021/12/19 04:08:23;;;;;;;19.45;6.65;;;;;;;0.18;90.19;98919.31;5019605;28;20049;-58
2021/12/19 04:10:51;;;;;;;18.23;6.88;;;;;;;0.24;89.97;98917.91;5006864;28;20127;-59
2021/12/19 04:13:19;;;;;;;14.45;5.88;;;;;;;0.15;89.21;98926.78;5025565;28;20504;-59
2021/12/19 04:15:48;;;;;;;16.15;6.68;;;;;;;0.14;89.63;98917.13;5025459;28;20586;-58
2021/12/19 04:18:15;;;;;;;17.30;5.68;;;;;;;0.05;90.55;98911.69;5036955;28;20052;-57
2021/12/19 04:20:42;;;;;;;15.25;6.30;;;;;;;0.12;90.00;98899.44;5025465;28;20108;-56
2021/12/19 04:23:08;;;;;;;17.85;5.60;;;;;;;0.01;90.10;98904.97;5017799;28;20508;-55
2021/12/19 04:25:35;;;;;;;17.17;6.30;;;;;;;0.00;90.96;98900.63;5022907;28;20049;-57
2021/12/19 04:28:02;;;;;;;17.33;7.47;;;;;;;-0.09;91.79;98890.81;5025854;28;20056;-58
2021/12/19 04:30:29;;;;;;;16.65;5.85;;;;;;;-0.11;91.16;98885.63;5012454;28;20045;-59
2021/12/19 04:33:02;;;;;;;19.60;7.75;;;;;;;-0.15;91.53;98885.09;5031601;28;20037;-58
2021/12/19 04:35:33;;;;;;;27.48;9.00;;;;;;;-0.23;92.23;98885.00;5020383;28;20059;-59
2021/12/19 04:54:23;;;;;;;28.23;8.30;;;;;;;-0.45;92.86;98892.31;5032703;28;20523;-58
2021/12/19 05:15:52;;;;;;;19.75;6.88;;;;;;;-0.62;92.84;98893.91;5009167;28;20042;-58
2021/12/19 05:18:23;;;;;;;22.77;7.60;;;;;;;-0.53;93.38;98890.41;5017241;28;20041;-59
2021/12/19 05:21:11;;;;;;;19.10;6.68;;;;;;;-0.47;92.71;98885.47;5023786;28;20037;-57
2021/12/19 05:24:02;;;;;;;16.05;5.53;;;;;;;-0.41;93.28;98896.38;5006260;28;20034;-58
2021/12/19 05:26:25;;;;;;;18.63;5.88;;;;;;;-0.53;92.34;98894.88;5024878;28;20037;-58
2021/12/19 05:28:52;;;;;;;19.35;6.28;;;;;;;-0.50;92.98;98889.25;5016674;28;20049;-59
2021/12/19 05:31:20;;;;;;;34.35;8.52;;;;;;;-0.55;92.91;98887.03;5007245;28;20652;-58
2021/12/19 05:33:47;;;;;;;24.35;7.68;;;;;;;-0.54;93.26;98893.19;5017165;28;20037;-58
2021/12/19 05:46:38;;;;;;;29.88;8.15;;;;;;;-0.66;93.69;98881.88;5008550;28;20053;-58
2021/12/19 05:49:06;;;;;;;29.88;8.75;;;;;;;-0.69;93.59;98875.03;5020746;28;20038;-58
2021/12/19 05:51:34;;;;;;;29.98;9.52;;;;;;;-0.63;93.61;98880.75;5005284;28;20084;-59
2021/12/19 05:54:01;;;;;;;34.83;8.18;;;;;;;-0.72;93.58;98874.44;5016220;28;20038;-59
2021/12/19 05:56:27;;;;;;;26.30;9.02;;;;;;;-0.77;93.91;98871.38;5013220;28;20042;-58
2021/12/19 05:58:55;;;;;;;22.80;7.78;;;;;;;-0.69;94.13;98866.19;5010061;28;20099;-58
2021/12/19 06:01:21;;;;;;;31.23;8.38;;;;;;;-0.58;93.81;98866.03;5027053;28;20042;-59
2021/12/19 06:03:48;;;;;;;24.23;8.82;;;;;;;-0.61;93.50;98865.47;5018274;28;20037;-59
2021/12/19 06:06:15;;;;;;;25.80;8.32;;;;;;;-0.69;92.80;98864.38;5022317;28;20037;-58
2021/12/19 06:08:41;;;;;;;23.13;7.60;;;;;;;-0.87;93.48;98856.28;5012366;28;20472;-58
2021/12/19 06:11:08;;;;;;;21.95;7.72;;;;;;;-0.84;94.00;98850.69;5014221;28;20072;-58
2021/12/19 06:13:38;;;;;;;27.67;8.45;;;;;;;-0.81;93.60;98854.88;5018335;28;20091;-58
2021/12/19 06:16:07;;;;;;;29.45;9.45;;;;;;;-0.83;94.06;98839.06;5020581;28;20612;-59
2021/12/19 06:18:34;;;;;;;17.15;5.82;;;;;;;-0.75;94.19;98832.16;5017948;28;20045;-58
2021/12/19 06:21:03;;;;;;;28.42;8.93;;;;;;;-0.68;93.75;98831.47;5032652;28;20071;-58
2021/12/19 06:23:30;;;;;;;25.65;7.20;;;;;;;-0.61;93.87;98838.88;5008540;28;20029;-55
2021/12/19 06:25:56;;;;;;;20.35;6.68;;;;;;;-0.78;93.82;98833.28;5027516;28;20052;-58
2021/12/19 06:28:23;;;;;;;24.02;7.45;;;;;;;-0.80;93.87;98835.25;5026681;28;20037;-62
2021/12/19 06:30:50;;;;;;;19.63;7.28;;;;;;;-0.85;93.91;98829.53;5034282;28;20037;-62
2021/12/19 06:33:16;;;;;;;26.20;9.10;;;;;;;-0.85;94.04;98818.91;5023253;28;20042;-61
2021/12/19 06:35:43;;;;;;;19.48;6.57;;;;;;;-0.74;94.17;98810.75;5030276;28;20104;-62
2021/12/19 06:38:12;;;;;;;20.92;6.65;;;;;;;-0.73;93.71;98815.09;5007944;28;20096;-61
2021/12/19 06:40:39;;;;;;;24.88;7.70;;;;;;;-0.78;94.20;98812.00;5022509;28;20505;-61
2021/12/19 06:43:07;;;;;;;24.67;7.70;;;;;;;-0.79;94.10;98827.16;5012676;28;20050;-61
2021/12/19 06:45:34;;;;;;;27.75;7.20;;;;;;;-0.77;94.58;98818.19;5035012;28;20705;-61
2021/12/19 06:48:00;;;;;;;24.42;6.82;;;;;;;-0.75;94.08;98811.72;5013453;28;20049;-62
2021/12/19 06:50:27;;;;;;;20.70;6.30;;;;;;;-0.64;94.12;98809.88;5024619;28;20041;-60
2021/12/19 06:52:54;;;;;;;17.63;6.22;;;;;;;-0.58;93.62;98810.16;5028459;28;20049;-61
2021/12/19 06:55:21;;;;;;;16.38;5.53;;;;;;;-0.55;92.96;98820.50;5009062;28;20053;-61
2021/12/19 06:57:47;;;;;;;18.33;5.35;;;;;;;-0.43;92.71;98815.88;5022210;28;20049;-60
2021/12/19 07:00:18;;;;;;;16.83;6.00;;;;;;;-0.58;93.00;98823.47;5017426;28;20053;-61
2021/12/19 07:02:44;;;;;;;21.67;7.22;;;;;;;-0.60;93.65;98827.22;5028528;28;20041;-61
2021/12/19 07:05:11;;;;;;;17.75;6.13;;;;;;;-0.56;93.67;98817.97;5013135;28;20177;-61
2021/12/19 07:07:38;;;;;;;21.05;6.50;;;;;;;-0.63;93.21;98817.72;5020460;28;20050;-60
2021/12/19 07:10:07;;;;;;;20.55;7.38;;;;;;;-0.68;93.68;98820.81;5031496;28;20106;-59
2021/12/19 07:12:34;;;;;;;19.73;6.57;;;;;;;-0.71;93.45;98826.44;5028190;28;20041;-60
2021/12/19 07:15:00;;;;;;;15.23;6.55;;;;;;;-0.64;93.72;98818.72;5023303;28;20519;-61
2021/12/19 07:17:27;;;;;;;19.02;5.88;;;;;;;-0.56;93.46;98831.28;5039072;28;20045;-61
2021/12/19 07:19:54;;;;;;;17.80;6.03;;;;;;;-0.56;93.54;98820.63;5016341;28;20046;-61
2021/12/19 07:22:20;;;;;;;14.73;5.32;;;;;;;-0.55;93.79;98822.34;5029509;28;20041;-61
2021/12/19 07:24:47;;;;;;;17.63;6.85;;;;;;;-0.54;93.30;98822.19;5041482;28;20114;-62
2021/12/19 07:27:14;;;;;;;22.00;6.57;;;;;;;-0.62;93.55;98822.06;5011242;28;20559;-61
2021/12/19 07:29:41;;;;;;;19.80;7.20;;;;;;;-0.61;93.77;98825.56;5018602;28;20042;-62
2021/12/19 07:32:08;;;;;;;20.75;7.13;;;;;;;-0.67;93.80;98819.84;5018126;28;20166;-60
2021/12/19 07:34:37;;;;;;;24.25;8.00;;;;;;;-0.66;93.67;98821.50;5018448;28;20095;-60
2021/12/19 07:37:04;;;;;;;22.00;7.22;;;;;;;-0.54;94.55;98830.19;5019448;28;20046;-61
2021/12/19 07:42:06;;;;;;;29.77;6.95;;;;;;;-0.59;94.00;98828.94;5027137;28;20045;-60
2021/12/19 07:44:33;;;;;;;24.90;6.68;;;;;;;-0.47;94.27;98825.13;5012827;28;20041;-56
2021/12/19 07:46:59;;;;;;;24.92;8.02;;;;;;;-0.38;94.29;98817.25;5019243;28;20049;-59
2021/12/19 07:49:26;;;;;;;29.00;7.93;;;;;;;-0.45;94.26;98819.63;5021270;28;20107;-60
2021/12/19 07:51:52;;;;;;;25.02;7.05;;;;;;;-0.40;94.21;98820.06;5022116;28;20050;-60
2021/12/19 07:54:19;;;;;;;21.10;7.28;;;;;;;-0.41;93.39;98827.19;5024055;28;20749;-60
2021/12/19 07:56:46;;;;;;;18.63;5.35;;;;;;;-0.33;94.14;98826.44;5023771;28;20049;-61
2021/12/19 07:59:14;;;;;;;13.02;4.63;;;;;;;-0.30;93.43;98828.81;5016957;28;20042;-60
2021/12/19 08:01:40;;;;;;;11.43;4.22;;;;;;;-0.14;93.66;98825.53;5021402;28;20126;-61
2021/12/19 08:04:07;;;;;;;11.23;4.00;;;;;;;0.06;93.17;98820.13;5031346;28;20053;-61
2021/12/19 08:06:33;;;;;;;13.68;4.18;;;;;;;0.10;92.19;98824.16;5012351;28;20048;-60
2021/12/19 08:09:12;;;;;;;9.52;3.20;;;;;;;0.07;91.08;98826.31;5014280;28;20069;-60
2021/12/19 08:11:42;;;;;;;8.15;3.35;;;;;;;-0.12;90.94;98814.75;5021498;28;20053;-60
2021/12/19 08:14:12;;;;;;;10.30;3.60;;;;;;;-0.22;91.82;98817.44;5021143;28;20038;-60
2021/12/19 08:16:40;;;;;;;10.52;4.03;;;;;;;-0.21;92.57;98813.81;5018171;28;20052;-65
2021/12/19 08:19:07;;;;;;;8.50;3.63;;;;;;;-0.26;92.77;98805.41;5018717;28;20590;-65
2021/12/19 08:21:34;;;;;;;10.73;3.47;;;;;;;-0.14;92.01;98795.44;5025110;28;20191;-65
2021/12/19 08:24:02;;;;;;;11.35;3.65;;;;;;;0.02;91.54;98793.94;5016820;28;20041;-66
2021/12/19 08:26:30;;;;;;;11.52;3.65;;;;;;;-0.07;91.78;98793.81;5023417;28;20041;-64
2021/12/19 08:29:02;;;;;;;7.82;3.55;;;;;;;-0.15;92.41;98786.59;5012430;28;20506;-65
2021/12/19 08:31:29;;;;;;;8.82;2.72;;;;;;;0.02;91.78;98784.13;5016602;28;20075;-65
2021/12/19 08:33:56;;;;;;;6.53;2.53;;;;;;;0.17;90.06;98794.25;5021894;28;20068;-65
2021/12/19 08:36:23;;;;;;;4.38;1.80;;;;;;;0.11;90.15;98796.53;5028934;28;20048;-61
2021/12/19 08:38:49;;;;;;;6.97;2.00;;;;;;;0.10;90.60;98797.53;5012010;28;20263;-62
2021/12/19 08:41:16;;;;;;;7.53;2.60;;;;;;;0.06;91.38;98796.16;5018476;28;20045;-64
2021/12/19 08:43:43;;;;;;;6.63;2.53;;;;;;;0.26;91.03;98790.72;5019795;28;20056;-63
2021/12/19 08:46:11;;;;;;;4.78;2.08;;;;;;;0.15;90.46;98796.25;5020651;28;20045;-65
2021/12/19 08:48:39;;;;;;;5.60;2.10;;;;;;;0.09;90.70;98798.53;5021019;28;20052;-64
2021/12/19 08:51:06;;;;;;;5.35;2.35;;;;;;;0.12;90.68;98792.88;5020917;28;20053;-65
2021/12/19 08:53:33;;;;;;;5.72;2.33;;;;;;;0.00;90.60;98786.13;5028051;28;20041;-61
2021/12/19 08:56:00;;;;;;;7.15;2.92;;;;;;;0.09;90.98;98785.22;5013403;28;20404;-61
2021/12/19 08:58:28;;;;;;;9.30;3.13;;;;;;;0.15;91.28;98782.94;5026627;28;20045;-62
2021/12/19 09:01:01;;;;;;;5.82;2.63;;;;;;;0.08;90.62;98794.16;5017471;28;20126;-61
2021/12/19 09:03:29;;;;;;;7.68;2.60;;;;;;;0.20;90.77;98783.31;5026787;28;20046;-63
2021/12/19 09:05:57;;;;;;;8.30;2.60;;;;;;;0.10;91.26;98776.22;5016187;28;20689;-62
2021/12/19 09:08:24;;;;;;;6.97;2.65;;;;;;;0.23;90.55;98772.38;5020686;28;20092;-62
2021/12/19 09:10:52;;;;;;;5.57;2.42;;;;;;;0.44;89.65;98771.25;5015600;28;20053;-60
2021/12/19 09:13:19;;;;;;;9.32;2.92;;;;;;;0.48;90.17;98770.78;5027152;28;20049;-61
2021/12/19 09:15:45;;;;;;;5.05;2.10;;;;;;;0.41;90.06;98763.53;5017590;28;20038;-61
2021/12/19 09:18:12;;;;;;;7.90;2.80;;;;;;;0.49;90.21;98769.81;5024458;28;20040;-62
2021/12/19 09:20:39;;;;;;;6.00;2.35;;;;;;;0.58;88.22;98780.50;5008890;28;20053;-62
2021/12/19 09:23:05;;;;;;;6.05;2.42;;;;;;;0.44;88.63;98780.06;5021393;28;20489;-61
2021/12/19 09:25:35;;;;;;;6.55;2.75;;;;;;;0.35;88.73;98784.47;5021321;28;20056;-62
2021/12/19 09:28:01;;;;;;;7.28;3.03;;;;;;;0.18;89.74;98790.63;5023088;28;20037;-60
2021/12/19 09:30:28;;;;;;;5.75;2.92;;;;;;;0.30;89.45;98789.44;5020834;28;20053;-61
2021/12/19 09:32:55;;;;;;;7.07;3.13;;;;;;;0.16;89.56;98781.94;5020175;28;20045;-62
2021/12/19 09:35:23;;;;;;;6.05;2.55;;;;;;;0.35;89.01;98781.81;5006528;28;20113;-61
2021/12/19 09:37:50;;;;;;;5.25;2.55;;;;;;;0.53;87.48;98786.31;5020948;28;20049;-61
2021/12/19 09:40:20;;;;;;;5.72;2.58;;;;;;;0.30;88.45;98784.09;5017371;28;20501;-61
2021/12/19 09:42:50;;;;;;;6.40;2.95;;;;;;;0.41;88.72;98780.38;5017806;28;20053;-61
2021/12/19 09:45:19;;;;;;;5.13;2.38;;;;;;;0.41;88.55;98772.38;5016593;28;20033;-62
2021/12/19 09:47:46;;;;;;;9.18;4.50;;;;;;;0.32;89.42;98767.94;5023495;28;20041;-61
2021/12/19 09:50:13;;;;;;;8.35;4.00;;;;;;;0.30;89.36;98764.59;5020738;28;20500;-62
2021/12/19 09:52:39;;;;;;;9.25;3.83;;;;;;;0.35;89.19;98755.19;5020600;28;20052;-62
2021/12/19 09:55:06;;;;;;;6.97;2.80;;;;;;;0.52;88.77;98747.34;5014929;28;20049;-61
2021/12/19 09:57:33;;;;;;;7.05;3.15;;;;;;;0.49;88.77;98750.31;5025972;28;20104;-62
2021/12/19 10:00:00;;;;;;;6.72;3.90;;;;;;;0.41;88.76;98745.75;5026296;28;20037;-60
2021/12/19 10:02:27;;;;;;;9.40;3.40;;;;;;;0.47;89.17;98745.13;5026868;28;20080;-61
2021/12/19 10:04:54;;;;;;;8.05;3.53;;;;;;;0.27;88.81;98747.09;5023399;28;20038;-62
2021/12/19 10:07:23;;;;;;;12.18;6.53;;;;;;;0.39;89.30;98742.38;5018468;28;20042;-62
2021/12/19 10:10:06;;;;;;;13.30;5.90;;;;;;;0.56;89.50;98734.53;5023849;28;20049;-61
2021/12/19 10:12:48;;;;;;;6.15;2.55;;;;;;;0.48;88.85;98735.31;5027221;28;20045;-61
2021/12/19 10:15:32;;;;;;;4.90;2.53;;;;;;;0.49;89.20;98724.50;5021472;28;20041;-61
2021/12/19 10:18:03;;;;;;;9.75;5.72;;;;;;;0.41;89.08;98737.75;5019212;28;20053;-61
2021/12/19 10:20:57;;;;;;;6.18;2.92;;;;;;;0.53;88.72;98735.69;5020091;28;20485;-62
2021/12/19 10:23:27;;;;;;;5.88;2.45;;;;;;;0.79;87.14;98734.88;5030243;28;20103;-61
2021/12/19 10:26:01;;;;;;;8.90;3.40;;;;;;;0.89;86.74;98724.94;5019779;28;20421;-61
2021/12/19 10:28:29;;;;;;;5.35;2.30;;;;;;;1.00;85.89;98721.19;5017481;28;20046;-61
2021/12/19 10:31:01;;;;;;;5.75;2.33;;;;;;;0.84;88.11;98718.41;5018906;28;20050;-62
2021/12/19 10:33:32;;;;;;;6.00;2.72;;;;;;;0.79;85.41;98718.88;5022305;28;20056;-61
2021/12/19 10:36:02;;;;;;;6.63;3.03;;;;;;;0.81;86.66;98706.22;5021499;28;20053;-63
2021/12/19 10:38:43;;;;;;;10.98;6.15;;;;;;;0.50;88.07;98704.00;5011098;28;20060;-61
2021/12/19 10:41:16;;;;;;;9.15;4.25;;;;;;;0.41;88.74;98699.59;5017273;28;20103;-61
2021/12/19 10:43:45;;;;;;;11.20;5.53;;;;;;;0.29;88.81;98693.66;5022022;28;20057;-63
2021/12/19 10:46:12;;;;;;;7.15;3.55;;;;;;;0.28;89.70;98699.97;5019141;28;20048;-64
2021/12/19 10:48:41;;;;;;;10.40;5.50;;;;;;;0.24;89.79;98696.78;5017580;28;20052;-64
2021/12/19 10:51:16;;;;;;;35.35;19.80;;;;;;;0.21;90.67;98695.25;5026962;28;20056;-61
2021/12/19 10:53:45;;;;;;;11.77;5.85;;;;;;;0.33;90.18;98690.53;5024463;28;20060;-63
2021/12/19 10:56:21;;;;;;;7.28;4.00;;;;;;;0.37;90.26;98677.75;5026947;28;20059;-63
2021/12/19 10:58:57;;;;;;;8.85;4.30;;;;;;;0.25;90.15;98672.66;5035534;28;20049;-63
2021/12/19 11:01:31;;;;;;;10.32;5.28;;;;;;;0.21;89.94;98668.63;5023825;28;20120;-63
2021/12/19 11:04:05;;;;;;;9.43;4.55;;;;;;;0.09;90.37;98661.84;5028484;28;20045;-61
2021/12/19 11:06:37;;;;;;;8.85;4.50;;;;;;;0.23;90.83;98660.47;5010970;28;20046;-64
2021/12/19 11:09:07;;;;;;;7.35;3.70;;;;;;;0.32;90.17;98648.91;5019036;28;20058;-64
2021/12/19 11:11:42;;;;;;;11.65;6.47;;;;;;;0.30;90.31;98648.22;5023743;28;20041;-64
2021/12/19 11:14:12;;;;;;;10.95;5.38;;;;;;;0.26;90.92;98649.53;5018336;28;20054;-64
2021/12/19 11:16:40;;;;;;;8.32;3.90;;;;;;;0.35;90.38;98637.09;5023410;28;20050;-63
2021/12/19 11:19:07;;;;;;;8.85;4.13;;;;;;;0.58;89.12;98637.44;5021320;28;20049;-65
2021/12/19 11:21:35;;;;;;;8.50;3.90;;;;;;;0.71;88.41;98634.34;5016328;28;20505;-64
2021/12/19 11:24:06;;;;;;;9.52;4.90;;;;;;;0.90;89.70;98627.97;5023390;28;20049;-64
2021/12/19 11:26:34;;;;;;;9.88;4.53;;;;;;;0.81;88.78;98630.75;5023081;28;20056;-65
2021/12/19 11:29:01;;;;;;;10.23;4.45;;;;;;;0.73;89.30;98631.50;5019523;28;20045;-62
2021/12/19 11:31:31;;;;;;;8.40;4.32;;;;;;;0.70;88.83;98621.19;5018257;28;20049;-64
2021/12/19 11:34:04;;;;;;;9.80;5.30;;;;;;;0.60;90.79;98621.28;5022732;28;20056;-65
2021/12/19 11:36:34;;;;;;;7.90;4.57;;;;;;;0.63;89.41;98621.78;5018449;28;20417;-63
2021/12/19 11:39:03;;;;;;;8.60;4.43;;;;;;;0.83;89.21;98613.59;5017445;28;20042;-62
2021/12/19 11:41:31;;;;;;;8.95;4.78;;;;;;;1.00;88.48;98606.50;5021139;28;20049;-64
2021/12/19 11:44:02;;;;;;;7.93;4.50;;;;;;;0.82;88.50;98603.06;5022757;28;20419;-64
2021/12/19 11:46:53;;;;;;;11.32;5.43;;;;;;;0.50;89.97;98592.06;5025247;28;20045;-61
2021/12/19 11:49:24;;;;;;;9.65;5.63;;;;;;;0.44;90.80;98590.03;5017169;28;20087;-61
2021/12/19 11:52:30;;;;;;;11.03;6.03;;;;;;;0.40;90.67;98586.00;5023315;28;20045;-62
2021/12/19 11:55:15;;;;;;;12.98;5.75;;;;;;;0.71;89.83;98586.38;5016575;28;20048;-62
2021/12/19 11:57:43;;;;;;;11.75;6.28;;;;;;;0.71;90.12;98581.03;5022137;28;20056;-64
2021/12/19 12:00:43;;;;;;;13.07;6.82;;;;;;;0.78;90.59;98568.72;5008768;28;20052;-63
2021/12/19 12:03:21;;;;;;;18.67;8.30;;;;;;;0.71;90.69;98574.84;5023003;28;20290;-65
2021/12/19 12:05:50;;;;;;;18.38;10.27;;;;;;;0.69;89.53;98569.69;5031237;28;20045;-63
2021/12/19 12:08:22;;;;;;;24.85;13.85;;;;;;;0.59;90.76;98566.31;5019655;28;20460;-64
2021/12/19 12:10:51;;;;;;;20.25;9.18;;;;;;;0.50;90.98;98563.59;5013204;28;20587;-65
2021/12/19 12:13:34;;;;;;;14.45;6.30;;;;;;;0.70;91.07;98554.53;5017631;28;20050;-62
2021/12/19 12:16:19;;;;;;;27.23;6.95;;;;;;;0.46;90.70;98554.22;5011508;28;20049;-62
2021/12/19 12:18:54;;;;;;;22.50;7.68;;;;;;;0.11;92.27;98550.69;5017194;28;20752;-63
2021/12/19 12:21:23;;;;;;;15.88;6.47;;;;;;;0.44;92.12;98534.06;5023437;28;20049;-65
2021/12/19 12:23:59;;;;;;;21.17;9.63;;;;;;;0.47;91.66;98525.75;5024757;28;20722;-66
2021/12/19 12:26:39;;;;;;;25.45;7.00;;;;;;;0.54;90.93;98520.59;5019752;28;20174;-65
2021/12/19 12:29:07;;;;;;;19.40;7.28;;;;;;;0.40;91.39;98512.22;5011695;28;20217;-64
2021/12/19 12:31:34;;;;;;;14.20;6.90;;;;;;;0.37;92.06;98515.22;5025109;28;20045;-65
2021/12/19 12:34:02;;;;;;;15.60;6.10;;;;;;;0.47;91.49;98507.09;5017054;28;20053;-64
2021/12/19 12:36:28;;;;;;;15.05;6.10;;;;;;;0.43;91.32;98506.56;5016522;28;20033;-63
2021/12/19 12:38:55;;;;;;;18.77;8.27;;;;;;;0.56;91.22;98502.66;5017498;28;20054;-63
2021/12/19 12:41:40;;;;;;;12.93;6.85;;;;;;;0.54;90.88;98499.28;5019983;28;20059;-63
2021/12/19 12:44:12;;;;;;;16.17;6.13;;;;;;;0.62;90.27;98496.66;5018518;28;20045;-64
2021/12/19 12:46:39;;;;;;;10.77;5.72;;;;;;;0.61;89.76;98497.66;5018605;28;20701;-63
2021/12/19 12:49:10;;;;;;;14.43;4.97;;;;;;;0.78;88.46;98493.25;5017427;28;20045;-64